sensor_id;sensor_type;location;lat;lon;timestamp;temperature;humidity
9816;DHT22;4947;44.526;11.360;2023-03-24T00:01:00;13.70;99.80
9816;DHT22;4947;44.526;11.360;2023-03-24T00:03:28;13.60;99.50
9816;DHT22;4947;44.526;11.360;2023-03-24T00:05:59;13.60;99.90
9816;DHT22;4947;44.526;11.360;2023-03-24T00:08:27;13.40;99.90
9816;DHT22;4947;44.526;11.360;2023-03-24T00:10:59;13.30;99.90
9816;DHT22;4947;44.526;11.360;2023-03-24T00:13:29;13.30;99.90
9816;DHT22;4947;44.526;11.360;2023-03-24T00:15:57;13.30;99.90
9816;DHT22;4947;44.526;11.360;2023-03-24T00:18:26;13.30;99.90
9816;DHT22;4947;44.526;11.360;2023-03-24T00:20:55;13.20;99.90
9816;DHT22;4947;44.526;11.360;2023-03-24T00:23:25;13.20;99.90
9816;DHT22;4947;44.526;11.360;2023-03-24T00:26:01;13.20;99.90
9816;DHT22;4947;44.526;11.360;2023-03-24T00:28:30;13.20;99.90
9816;DHT22;4947;44.526;11.360;2023-03-24T00:30:58;13.20;99.90
9816;DHT22;4947;44.526;11.360;2023-03-24T00:33:26;13.20;99.90
9816;DHT22;4947;44.526;11.360;2023-03-24T00:35:57;13.30;99.90
9816;DHT22;4947;44.526;11.360;2023-03-24T00:38:27;13.20;99.90
9816;DHT22;4947;44.526;11.360;2023-03-24T00:40:54;13.30;99.90
9816;DHT22;4947;44.526;11.360;2023-03-24T00:43:22;13.30;99.90
9816;DHT22;4947;44.526;11.360;2023-03-24T00:45:49;13.30;99.90
9816;DHT22;4947;44.526;11.360;2023-03-24T00:48:18;13.20;99.90
9816;DHT22;4947;44.526;11.360;2023-03-24T00:50:49;13.20;99.90
9816;DHT22;4947;44.526;11.360;2023-03-24T00:53:18;13.20;99.90
9816;DHT22;4947;44.526;11.360;2023-03-24T00:55:49;13.20;99.90
9816;DHT22;4947;44.526;11.360;2023-03-24T00:58:18;13.20;99.90
9816;DHT22;4947;44.526;11.360;2023-03-24T01:00:46;13.20;99.90
9816;DHT22;4947;44.526;11.360;2023-03-24T01:03:15;13.20;99.90
9816;DHT22;4947;44.526;11.360;2023-03-24T01:05:47;13.20;99.90
9816;DHT22;4947;44.526;11.360;2023-03-24T01:08:15;13.20;99.90
9816;DHT22;4947;44.526;11.360;2023-03-24T01:10:45;13.20;99.90
9816;DHT22;4947;44.526;11.360;2023-03-24T01:13:19;13.10;99.90
9816;DHT22;4947;44.526;11.360;2023-03-24T01:15:48;13.10;99.90
9816;DHT22;4947;44.526;11.360;2023-03-24T01:18:15;13.10;99.90
9816;DHT22;4947;44.526;11.360;2023-03-24T01:20:45;13.20;99.90
9816;DHT22;4947;44.526;11.360;2023-03-24T01:23:15;13.20;99.90
9816;DHT22;4947;44.526;11.360;2023-03-24T01:25:43;13.10;99.90
9816;DHT22;4947;44.526;11.360;2023-03-24T01:28:13;13.10;99.90
9816;DHT22;4947;44.526;11.360;2023-03-24T01:30:43;13.10;99.90
9816;DHT22;4947;44.526;11.360;2023-03-24T01:33:11;13.00;99.90
9816;DHT22;4947;44.526;11.360;2023-03-24T01:35:38;13.00;99.90
9816;DHT22;4947;44.526;11.360;2023-03-24T01:38:07;13.00;99.90
9816;DHT22;4947;44.526;11.360;2023-03-24T01:40:38;13.00;99.90
9816;DHT22;4947;44.526;11.360;2023-03-24T01:43:06;13.00;99.90
9816;DHT22;4947;44.526;11.360;2023-03-24T01:48:29;12.90;99.90
9816;DHT22;4947;44.526;11.360;2023-03-24T01:51:00;12.90;99.90
9816;DHT22;4947;44.526;11.360;2023-03-24T01:53:29;12.90;99.90
9816;DHT22;4947;44.526;11.360;2023-03-24T01:55:59;12.80;99.90
9816;DHT22;4947;44.526;11.360;2023-03-24T01:58:28;12.80;99.90
9816;DHT22;4947;44.526;11.360;2023-03-24T02:00:58;12.80;99.90
9816;DHT22;4947;44.526;11.360;2023-03-24T02:03:26;12.80;99.90
9816;DHT22;4947;44.526;11.360;2023-03-24T02:05:58;12.80;99.90
9816;DHT22;4947;44.526;11.360;2023-03-24T02:08:31;12.70;99.90
9816;DHT22;4947;44.526;11.360;2023-03-24T02:11:01;12.70;99.90
9816;DHT22;4947;44.526;11.360;2023-03-24T02:13:28;12.70;99.90
9816;DHT22;4947;44.526;11.360;2023-03-24T02:16:12;12.70;99.90
9816;DHT22;4947;44.526;11.360;2023-03-24T02:18:50;12.70;99.90
9816;DHT22;4947;44.526;11.360;2023-03-24T02:24:47;12.70;99.90
9816;DHT22;4947;44.526;11.360;2023-03-24T02:27:30;12.70;99.90
9816;DHT22;4947;44.526;11.360;2023-03-24T02:30:25;12.60;99.90
9816;DHT22;4947;44.526;11.360;2023-03-24T02:36:36;12.60;99.90
9816;DHT22;4947;44.526;11.360;2023-03-24T02:42:24;12.60;99.90
9816;DHT22;4947;44.526;11.360;2023-03-24T02:45:05;12.60;99.90
9816;DHT22;4947;44.526;11.360;2023-03-24T02:47:45;12.60;99.90
9816;DHT22;4947;44.526;11.360;2023-03-24T02:50:23;12.60;99.90
9816;DHT22;4947;44.526;11.360;2023-03-24T02:53:00;12.50;99.90
9816;DHT22;4947;44.526;11.360;2023-03-24T02:55:34;12.50;99.90
9816;DHT22;4947;44.526;11.360;2023-03-24T02:58:07;12.50;99.90
9816;DHT22;4947;44.526;11.360;2023-03-24T03:00:41;12.60;99.90
9816;DHT22;4947;44.526;11.360;2023-03-24T03:03:16;12.50;99.90
9816;DHT22;4947;44.526;11.360;2023-03-24T03:05:48;12.50;99.90
9816;DHT22;4947;44.526;11.360;2023-03-24T03:08:20;12.40;99.90
9816;DHT22;4947;44.526;11.360;2023-03-24T03:10:51;12.40;99.90
9816;DHT22;4947;44.526;11.360;2023-03-24T03:13:21;12.40;99.90
9816;DHT22;4947;44.526;11.360;2023-03-24T03:15:53;12.50;99.90
9816;DHT22;4947;44.526;11.360;2023-03-24T03:18:25;12.60;99.90
9816;DHT22;4947;44.526;11.360;2023-03-24T03:20:58;12.50;99.90
9816;DHT22;4947;44.526;11.360;2023-03-24T03:23:31;12.40;99.90
9816;DHT22;4947;44.526;11.360;2023-03-24T03:26:03;12.30;99.90
9816;DHT22;4947;44.526;11.360;2023-03-24T03:28:32;12.30;99.90
9816;DHT22;4947;44.526;11.360;2023-03-24T03:31:05;12.30;99.90
9816;DHT22;4947;44.526;11.360;2023-03-24T03:33:39;12.30;99.90
9816;DHT22;4947;44.526;11.360;2023-03-24T03:36:13;12.30;99.90
9816;DHT22;4947;44.526;11.360;2023-03-24T03:38:53;12.30;99.90
9816;DHT22;4947;44.526;11.360;2023-03-24T03:41:23;12.30;99.90
9816;DHT22;4947;44.526;11.360;2023-03-24T03:43:51;12.30;99.90
9816;DHT22;4947;44.526;11.360;2023-03-24T03:46:18;12.30;99.90
9816;DHT22;4947;44.526;11.360;2023-03-24T03:48:46;12.40;99.90
9816;DHT22;4947;44.526;11.360;2023-03-24T03:51:14;12.30;99.90
9816;DHT22;4947;44.526;11.360;2023-03-24T03:53:46;12.30;99.90
9816;DHT22;4947;44.526;11.360;2023-03-24T03:56:17;12.40;99.90
9816;DHT22;4947;44.526;11.360;2023-03-24T03:58:46;12.40;99.90
9816;DHT22;4947;44.526;11.360;2023-03-24T04:01:17;12.50;99.90
9816;DHT22;4947;44.526;11.360;2023-03-24T04:04:09;12.50;99.90
9816;DHT22;4947;44.526;11.360;2023-03-24T04:06:41;12.60;99.90
9816;DHT22;4947;44.526;11.360;2023-03-24T04:09:22;12.60;99.90
9816;DHT22;4947;44.526;11.360;2023-03-24T04:12:17;12.60;99.90
9816;DHT22;4947;44.526;11.360;2023-03-24T04:15:07;12.70;99.90
9816;DHT22;4947;44.526;11.360;2023-03-24T04:17:48;12.70;99.90
9816;DHT22;4947;44.526;11.360;2023-03-24T04:20:20;12.70;99.90
9816;DHT22;4947;44.526;11.360;2023-03-24T04:22:59;12.60;99.90
9816;DHT22;4947;44.526;11.360;2023-03-24T04:25:36;12.70;99.90
9816;DHT22;4947;44.526;11.360;2023-03-24T04:28:14;12.70;99.90
9816;DHT22;4947;44.526;11.360;2023-03-24T04:30:48;12.60;99.90
9816;DHT22;4947;44.526;11.360;2023-03-24T04:33:20;12.60;99.90
9816;DHT22;4947;44.526;11.360;2023-03-24T04:35:57;12.50;99.90
9816;DHT22;4947;44.526;11.360;2023-03-24T04:38:31;12.50;99.90
9816;DHT22;4947;44.526;11.360;2023-03-24T04:41:04;12.50;99.90
9816;DHT22;4947;44.526;11.360;2023-03-24T04:43:33;12.50;99.90
9816;DHT22;4947;44.526;11.360;2023-03-24T04:46:04;12.60;99.90
9816;DHT22;4947;44.526;11.360;2023-03-24T04:48:33;12.50;99.90
9816;DHT22;4947;44.526;11.360;2023-03-24T04:51:02;12.50;99.90
9816;DHT22;4947;44.526;11.360;2023-03-24T04:53:36;12.50;99.90
9816;DHT22;4947;44.526;11.360;2023-03-24T04:56:25;12.50;99.90
9816;DHT22;4947;44.526;11.360;2023-03-24T04:58:55;12.60;99.90
9816;DHT22;4947;44.526;11.360;2023-03-24T05:01:25;12.70;99.90
9816;DHT22;4947;44.526;11.360;2023-03-24T05:03:56;12.60;99.90
9816;DHT22;4947;44.526;11.360;2023-03-24T05:06:24;12.60;99.90
9816;DHT22;4947;44.526;11.360;2023-03-24T05:08:52;12.60;99.90
9816;DHT22;4947;44.526;11.360;2023-03-24T05:11:19;12.60;99.90
9816;DHT22;4947;44.526;11.360;2023-03-24T05:13:47;12.50;99.90
9816;DHT22;4947;44.526;11.360;2023-03-24T05:16:14;12.60;99.90
9816;DHT22;4947;44.526;11.360;2023-03-24T05:18:43;12.50;99.90
9816;DHT22;4947;44.526;11.360;2023-03-24T05:21:10;12.50;99.90
9816;DHT22;4947;44.526;11.360;2023-03-24T05:23:37;12.50;99.90
9816;DHT22;4947;44.526;11.360;2023-03-24T05:26:05;12.60;99.90
9816;DHT22;4947;44.526;11.360;2023-03-24T05:28:33;12.80;99.90
9816;DHT22;4947;44.526;11.360;2023-03-24T05:31:01;12.80;99.90
9816;DHT22;4947;44.526;11.360;2023-03-24T05:33:28;12.80;99.90
9816;DHT22;4947;44.526;11.360;2023-03-24T05:35:57;12.80;99.90
9816;DHT22;4947;44.526;11.360;2023-03-24T05:38:25;12.90;99.90
9816;DHT22;4947;44.526;11.360;2023-03-24T05:40:55;13.00;99.90
9816;DHT22;4947;44.526;11.360;2023-03-24T05:43:23;13.00;99.90
9816;DHT22;4947;44.526;11.360;2023-03-24T05:45:50;13.00;99.90
9816;DHT22;4947;44.526;11.360;2023-03-24T05:48:18;13.10;99.90
9816;DHT22;4947;44.526;11.360;2023-03-24T05:50:45;13.10;99.90
9816;DHT22;4947;44.526;11.360;2023-03-24T05:53:15;13.20;99.90
9816;DHT22;4947;44.526;11.360;2023-03-24T05:55:44;13.40;99.90
9816;DHT22;4947;44.526;11.360;2023-03-24T05:58:12;13.40;99.90
9816;DHT22;4947;44.526;11.360;2023-03-24T06:00:40;13.50;99.90
9816;DHT22;4947;44.526;11.360;2023-03-24T06:03:11;13.50;99.90
9816;DHT22;4947;44.526;11.360;2023-03-24T06:05:41;13.60;99.90
9816;DHT22;4947;44.526;11.360;2023-03-24T06:08:10;13.60;99.90
9816;DHT22;4947;44.526;11.360;2023-03-24T06:10:39;13.70;99.90
9816;DHT22;4947;44.526;11.360;2023-03-24T06:13:07;13.70;99.90
9816;DHT22;4947;44.526;11.360;2023-03-24T06:15:35;13.80;99.90
9816;DHT22;4947;44.526;11.360;2023-03-24T06:18:03;13.90;99.90
9816;DHT22;4947;44.526;11.360;2023-03-24T06:20:32;14.10;99.90
9816;DHT22;4947;44.526;11.360;2023-03-24T06:23:00;14.20;99.90
9816;DHT22;4947;44.526;11.360;2023-03-24T06:25:27;14.30;99.90
9816;DHT22;4947;44.526;11.360;2023-03-24T06:27:57;14.40;99.90
9816;DHT22;4947;44.526;11.360;2023-03-24T06:30:28;14.50;99.90
9816;DHT22;4947;44.526;11.360;2023-03-24T06:32:55;14.40;99.90
9816;DHT22;4947;44.526;11.360;2023-03-24T06:35:22;14.40;99.90
9816;DHT22;4947;44.526;11.360;2023-03-24T06:37:50;14.50;99.90
9816;DHT22;4947;44.526;11.360;2023-03-24T06:40:17;14.70;99.90
9816;DHT22;4947;44.526;11.360;2023-03-24T06:42:44;14.70;99.90
9816;DHT22;4947;44.526;11.360;2023-03-24T06:45:13;14.70;99.90
9816;DHT22;4947;44.526;11.360;2023-03-24T06:47:40;14.80;99.90
9816;DHT22;4947;44.526;11.360;2023-03-24T06:50:15;14.80;99.90
9816;DHT22;4947;44.526;11.360;2023-03-24T06:52:43;14.80;99.90
9816;DHT22;4947;44.526;11.360;2023-03-24T06:55:10;15.00;99.90
9816;DHT22;4947;44.526;11.360;2023-03-24T06:57:38;15.10;99.90
9816;DHT22;4947;44.526;11.360;2023-03-24T07:00:06;15.30;99.90
9816;DHT22;4947;44.526;11.360;2023-03-24T07:02:36;15.20;99.90
9816;DHT22;4947;44.526;11.360;2023-03-24T07:05:04;15.30;99.90
9816;DHT22;4947;44.526;11.360;2023-03-24T07:07:33;15.30;99.90
9816;DHT22;4947;44.526;11.360;2023-03-24T07:10:00;15.60;99.90
9816;DHT22;4947;44.526;11.360;2023-03-24T07:12:28;15.90;99.90
9816;DHT22;4947;44.526;11.360;2023-03-24T07:14:55;16.30;97.60
9816;DHT22;4947;44.526;11.360;2023-03-24T07:17:23;16.50;96.80
9816;DHT22;4947;44.526;11.360;2023-03-24T07:19:52;16.70;95.80
9816;DHT22;4947;44.526;11.360;2023-03-24T07:22:20;17.20;94.90
9816;DHT22;4947;44.526;11.360;2023-03-24T07:24:48;17.90;92.90
9816;DHT22;4947;44.526;11.360;2023-03-24T07:27:16;18.30;91.20
9816;DHT22;4947;44.526;11.360;2023-03-24T07:29:43;18.70;90.40
9816;DHT22;4947;44.526;11.360;2023-03-24T07:32:11;19.30;85.50
9816;DHT22;4947;44.526;11.360;2023-03-24T07:34:38;19.40;83.70
9816;DHT22;4947;44.526;11.360;2023-03-24T07:37:09;19.30;82.30
9816;DHT22;4947;44.526;11.360;2023-03-24T07:39:37;19.50;82.20
9816;DHT22;4947;44.526;11.360;2023-03-24T07:42:04;19.40;80.90
9816;DHT22;4947;44.526;11.360;2023-03-24T07:44:32;19.60;81.80
9816;DHT22;4947;44.526;11.360;2023-03-24T07:46:59;19.70;80.50
9816;DHT22;4947;44.526;11.360;2023-03-24T07:49:27;19.90;81.30
9816;DHT22;4947;44.526;11.360;2023-03-24T07:51:54;20.50;78.90
9816;DHT22;4947;44.526;11.360;2023-03-24T07:54:26;21.20;74.30
9816;DHT22;4947;44.526;11.360;2023-03-24T07:56:53;21.60;71.70
9816;DHT22;4947;44.526;11.360;2023-03-24T07:59:21;21.40;69.30
9816;DHT22;4947;44.526;11.360;2023-03-24T08:01:48;21.30;70.40
9816;DHT22;4947;44.526;11.360;2023-03-24T08:04:16;22.00;68.70
9816;DHT22;4947;44.526;11.360;2023-03-24T08:06:47;22.60;64.60
9816;DHT22;4947;44.526;11.360;2023-03-24T08:09:14;22.70;63.90
9816;DHT22;4947;44.526;11.360;2023-03-24T08:11:44;22.60;63.50
9816;DHT22;4947;44.526;11.360;2023-03-24T08:14:11;22.80;63.40
9816;DHT22;4947;44.526;11.360;2023-03-24T08:16:39;22.80;62.90
9816;DHT22;4947;44.526;11.360;2023-03-24T08:19:06;22.70;63.70
9816;DHT22;4947;44.526;11.360;2023-03-24T08:21:33;23.00;64.00
9816;DHT22;4947;44.526;11.360;2023-03-24T08:24:01;23.50;62.40
9816;DHT22;4947;44.526;11.360;2023-03-24T08:26:28;22.30;60.90
9816;DHT22;4947;44.526;11.360;2023-03-24T08:29:01;23.00;62.40
9816;DHT22;4947;44.526;11.360;2023-03-24T08:31:31;23.50;60.80
9816;DHT22;4947;44.526;11.360;2023-03-24T08:33:59;23.50;58.50
9816;DHT22;4947;44.526;11.360;2023-03-24T08:36:26;24.10;59.60
9816;DHT22;4947;44.526;11.360;2023-03-24T08:38:54;25.00;57.70
9816;DHT22;4947;44.526;11.360;2023-03-24T08:41:22;25.20;56.70
9816;DHT22;4947;44.526;11.360;2023-03-24T08:43:55;25.40;54.10
9816;DHT22;4947;44.526;11.360;2023-03-24T08:46:24;25.30;53.50
9816;DHT22;4947;44.526;11.360;2023-03-24T08:48:51;25.50;53.40
9816;DHT22;4947;44.526;11.360;2023-03-24T08:51:19;25.20;54.10
9816;DHT22;4947;44.526;11.360;2023-03-24T08:53:47;24.80;56.50
9816;DHT22;4947;44.526;11.360;2023-03-24T08:56:15;24.30;54.50
9816;DHT22;4947;44.526;11.360;2023-03-24T08:58:43;23.40;59.30
9816;DHT22;4947;44.526;11.360;2023-03-24T09:01:10;23.10;60.10
9816;DHT22;4947;44.526;11.360;2023-03-24T09:03:39;22.70;62.50
9816;DHT22;4947;44.526;11.360;2023-03-24T09:06:07;22.50;63.80
9816;DHT22;4947;44.526;11.360;2023-03-24T09:08:35;22.70;66.20
9816;DHT22;4947;44.526;11.360;2023-03-24T09:11:06;23.20;59.50
9816;DHT22;4947;44.526;11.360;2023-03-24T09:13:39;23.90;59.80
9816;DHT22;4947;44.526;11.360;2023-03-24T09:16:07;23.90;60.80
9816;DHT22;4947;44.526;11.360;2023-03-24T09:18:35;24.20;60.00
9816;DHT22;4947;44.526;11.360;2023-03-24T09:21:05;24.00;59.90
9816;DHT22;4947;44.526;11.360;2023-03-24T09:23:32;24.10;59.70
9816;DHT22;4947;44.526;11.360;2023-03-24T09:26:00;24.50;58.10
9816;DHT22;4947;44.526;11.360;2023-03-24T09:28:28;24.40;57.60
9816;DHT22;4947;44.526;11.360;2023-03-24T09:30:57;24.30;58.50
9816;DHT22;4947;44.526;11.360;2023-03-24T09:33:25;24.20;58.30
9816;DHT22;4947;44.526;11.360;2023-03-24T09:35:54;23.70;60.10
9816;DHT22;4947;44.526;11.360;2023-03-24T09:38:24;24.10;60.00
9816;DHT22;4947;44.526;11.360;2023-03-24T09:40:54;23.90;60.80
9816;DHT22;4947;44.526;11.360;2023-03-24T09:43:26;23.50;60.60
9816;DHT22;4947;44.526;11.360;2023-03-24T09:45:59;22.70;62.90
9816;DHT22;4947;44.526;11.360;2023-03-24T09:48:33;22.30;67.70
9816;DHT22;4947;44.526;11.360;2023-03-24T09:51:03;22.00;69.20
9816;DHT22;4947;44.526;11.360;2023-03-24T09:53:37;21.90;69.70
9816;DHT22;4947;44.526;11.360;2023-03-24T09:56:11;22.00;69.90
9816;DHT22;4947;44.526;11.360;2023-03-24T09:58:41;22.00;70.40
9816;DHT22;4947;44.526;11.360;2023-03-24T10:01:12;21.90;70.30
9816;DHT22;4947;44.526;11.360;2023-03-24T10:03:40;21.60;74.50
9816;DHT22;4947;44.526;11.360;2023-03-24T10:06:10;21.50;71.60
9816;DHT22;4947;44.526;11.360;2023-03-24T10:08:43;21.70;71.30
9816;DHT22;4947;44.526;11.360;2023-03-24T10:11:17;21.60;72.20
9816;DHT22;4947;44.526;11.360;2023-03-24T10:14:01;21.60;72.60
9816;DHT22;4947;44.526;11.360;2023-03-24T10:16:35;21.60;72.90
9816;DHT22;4947;44.526;11.360;2023-03-24T10:19:14;21.70;73.40
9816;DHT22;4947;44.526;11.360;2023-03-24T10:21:50;21.50;74.50
9816;DHT22;4947;44.526;11.360;2023-03-24T10:24:28;21.30;74.80
9816;DHT22;4947;44.526;11.360;2023-03-24T10:27:01;21.10;75.70
9816;DHT22;4947;44.526;11.360;2023-03-24T10:29:32;21.30;78.60
9816;DHT22;4947;44.526;11.360;2023-03-24T10:32:02;21.30;76.20
9816;DHT22;4947;44.526;11.360;2023-03-24T10:34:31;21.10;77.70
9816;DHT22;4947;44.526;11.360;2023-03-24T10:37:01;21.30;77.00
9816;DHT22;4947;44.526;11.360;2023-03-24T10:39:31;21.60;74.40
9816;DHT22;4947;44.526;11.360;2023-03-24T10:42:00;21.80;76.40
9816;DHT22;4947;44.526;11.360;2023-03-24T10:44:27;21.90;78.50
9816;DHT22;4947;44.526;11.360;2023-03-24T10:46:58;21.50;78.40
9816;DHT22;4947;44.526;11.360;2023-03-24T10:49:29;21.50;73.60
9816;DHT22;4947;44.526;11.360;2023-03-24T10:52:00;21.70;76.60
9816;DHT22;4947;44.526;11.360;2023-03-24T10:54:30;21.50;75.80
9816;DHT22;4947;44.526;11.360;2023-03-24T10:57:02;21.40;79.20
9816;DHT22;4947;44.526;11.360;2023-03-24T10:59:33;21.30;78.90
9816;DHT22;4947;44.526;11.360;2023-03-24T11:02:13;20.80;81.70
9816;DHT22;4947;44.526;11.360;2023-03-24T11:04:44;21.00;82.50
9816;DHT22;4947;44.526;11.360;2023-03-24T11:07:17;21.00;79.60
9816;DHT22;4947;44.526;11.360;2023-03-24T11:09:57;20.80;77.50
9816;DHT22;4947;44.526;11.360;2023-03-24T11:12:26;20.70;84.00
9816;DHT22;4947;44.526;11.360;2023-03-24T11:15:15;20.50;85.60
9816;DHT22;4947;44.526;11.360;2023-03-24T11:17:44;20.50;84.70
9816;DHT22;4947;44.526;11.360;2023-03-24T11:20:16;20.70;82.10
9816;DHT22;4947;44.526;11.360;2023-03-24T11:23:00;20.60;84.70
9816;DHT22;4947;44.526;11.360;2023-03-24T11:25:32;20.50;83.70
9816;DHT22;4947;44.526;11.360;2023-03-24T11:28:01;20.30;84.90
9816;DHT22;4947;44.526;11.360;2023-03-24T11:30:32;20.40;87.40
9816;DHT22;4947;44.526;11.360;2023-03-24T11:33:01;20.50;84.10
9816;DHT22;4947;44.526;11.360;2023-03-24T11:35:30;20.20;86.70
9816;DHT22;4947;44.526;11.360;2023-03-24T11:38:02;20.20;87.60
9816;DHT22;4947;44.526;11.360;2023-03-24T11:40:31;20.20;87.30
9816;DHT22;4947;44.526;11.360;2023-03-24T11:43:00;19.90;85.70
9816;DHT22;4947;44.526;11.360;2023-03-24T11:45:35;19.90;90.20
9816;DHT22;4947;44.526;11.360;2023-03-24T11:48:09;19.90;92.40
9816;DHT22;4947;44.526;11.360;2023-03-24T11:50:42;20.00;90.90
9816;DHT22;4947;44.526;11.360;2023-03-24T11:53:13;20.00;90.20
9816;DHT22;4947;44.526;11.360;2023-03-24T11:55:50;19.90;89.60
9816;DHT22;4947;44.526;11.360;2023-03-24T11:58:26;20.00;89.70
9816;DHT22;4947;44.526;11.360;2023-03-24T12:01:03;20.00;88.10
9816;DHT22;4947;44.526;11.360;2023-03-24T12:06:34;20.10;87.50
9816;DHT22;4947;44.526;11.360;2023-03-24T12:09:13;20.00;89.20
9816;DHT22;4947;44.526;11.360;2023-03-24T12:12:11;20.10;91.00
9816;DHT22;4947;44.526;11.360;2023-03-24T12:14:53;20.20;88.30
9816;DHT22;4947;44.526;11.360;2023-03-24T12:17:29;20.10;90.80
9816;DHT22;4947;44.526;11.360;2023-03-24T12:20:15;20.20;90.60
9816;DHT22;4947;44.526;11.360;2023-03-24T12:22:58;20.20;91.30
9816;DHT22;4947;44.526;11.360;2023-03-24T12:25:38;20.20;90.50
9816;DHT22;4947;44.526;11.360;2023-03-24T12:28:26;20.10;90.90
9816;DHT22;4947;44.526;11.360;2023-03-24T12:31:04;19.90;90.40
9816;DHT22;4947;44.526;11.360;2023-03-24T12:33:46;19.90;91.80
9816;DHT22;4947;44.526;11.360;2023-03-24T12:36:37;20.00;88.00
9816;DHT22;4947;44.526;11.360;2023-03-24T12:39:08;19.90;91.80
9816;DHT22;4947;44.526;11.360;2023-03-24T12:42:05;19.90;87.30
9816;DHT22;4947;44.526;11.360;2023-03-24T12:44:47;19.90;92.00
9816;DHT22;4947;44.526;11.360;2023-03-24T12:47:40;20.10;90.10
9816;DHT22;4947;44.526;11.360;2023-03-24T12:50:23;20.10;90.80
9816;DHT22;4947;44.526;11.360;2023-03-24T12:53:02;20.10;92.60
9816;DHT22;4947;44.526;11.360;2023-03-24T12:55:39;20.10;91.70
9816;DHT22;4947;44.526;11.360;2023-03-24T12:58:13;20.00;91.10
9816;DHT22;4947;44.526;11.360;2023-03-24T13:00:59;20.00;90.60
9816;DHT22;4947;44.526;11.360;2023-03-24T13:03:32;19.90;91.70
9816;DHT22;4947;44.526;11.360;2023-03-24T13:06:18;19.90;91.10
9816;DHT22;4947;44.526;11.360;2023-03-24T13:08:58;20.00;91.20
9816;DHT22;4947;44.526;11.360;2023-03-24T13:11:35;19.90;90.80
9816;DHT22;4947;44.526;11.360;2023-03-24T13:14:11;19.90;91.00
9816;DHT22;4947;44.526;11.360;2023-03-24T13:16:43;20.00;91.10
9816;DHT22;4947;44.526;11.360;2023-03-24T13:19:16;20.10;91.20
9816;DHT22;4947;44.526;11.360;2023-03-24T13:21:47;20.10;92.30
9816;DHT22;4947;44.526;11.360;2023-03-24T13:24:16;20.20;91.40
9816;DHT22;4947;44.526;11.360;2023-03-24T13:26:51;20.20;91.10
9816;DHT22;4947;44.526;11.360;2023-03-24T13:29:28;20.20;90.40
9816;DHT22;4947;44.526;11.360;2023-03-24T13:32:03;20.20;90.90
9816;DHT22;4947;44.526;11.360;2023-03-24T13:34:36;20.20;91.40
9816;DHT22;4947;44.526;11.360;2023-03-24T13:37:09;20.20;89.60
9816;DHT22;4947;44.526;11.360;2023-03-24T13:39:37;20.10;90.20
9816;DHT22;4947;44.526;11.360;2023-03-24T13:42:04;20.10;88.30
9816;DHT22;4947;44.526;11.360;2023-03-24T13:44:37;20.10;90.80
9816;DHT22;4947;44.526;11.360;2023-03-24T13:47:11;20.00;89.90
9816;DHT22;4947;44.526;11.360;2023-03-24T13:49:39;20.10;91.30
9816;DHT22;4947;44.526;11.360;2023-03-24T13:52:24;20.10;90.50
9816;DHT22;4947;44.526;11.360;2023-03-24T13:54:55;20.20;88.80
9816;DHT22;4947;44.526;11.360;2023-03-24T13:57:27;20.30;87.70
9816;DHT22;4947;44.526;11.360;2023-03-24T14:00:00;20.30;88.90
9816;DHT22;4947;44.526;11.360;2023-03-24T14:02:42;20.30;86.20
9816;DHT22;4947;44.526;11.360;2023-03-24T14:05:29;20.30;85.00
9816;DHT22;4947;44.526;11.360;2023-03-24T14:08:11;20.30;84.60
9816;DHT22;4947;44.526;11.360;2023-03-24T14:10:42;20.30;89.10
9816;DHT22;4947;44.526;11.360;2023-03-24T14:16:35;20.40;90.30
9816;DHT22;4947;44.526;11.360;2023-03-24T14:19:23;20.30;88.70
9816;DHT22;4947;44.526;11.360;2023-03-24T14:21:52;20.20;88.20
9816;DHT22;4947;44.526;11.360;2023-03-24T14:24:24;20.20;91.00
9816;DHT22;4947;44.526;11.360;2023-03-24T14:26:52;20.20;89.50
9816;DHT22;4947;44.526;11.360;2023-03-24T14:29:36;20.20;88.00
9816;DHT22;4947;44.526;11.360;2023-03-24T14:32:05;20.20;88.00
9816;DHT22;4947;44.526;11.360;2023-03-24T14:34:35;20.20;88.80
9816;DHT22;4947;44.526;11.360;2023-03-24T14:37:07;20.20;87.70
9816;DHT22;4947;44.526;11.360;2023-03-24T14:39:39;20.20;86.30
9816;DHT22;4947;44.526;11.360;2023-03-24T14:45:37;20.20;86.40
9816;DHT22;4947;44.526;11.360;2023-03-24T14:48:19;20.20;85.70
9816;DHT22;4947;44.526;11.360;2023-03-24T14:50:52;20.30;88.30
9816;DHT22;4947;44.526;11.360;2023-03-24T14:53:21;20.40;90.00
9816;DHT22;4947;44.526;11.360;2023-03-24T14:55:50;20.40;89.10
9816;DHT22;4947;44.526;11.360;2023-03-24T14:58:21;20.50;89.80
9816;DHT22;4947;44.526;11.360;2023-03-24T15:00:52;20.60;88.80
9816;DHT22;4947;44.526;11.360;2023-03-24T15:03:26;20.60;85.50
9816;DHT22;4947;44.526;11.360;2023-03-24T15:06:12;20.70;90.10
9816;DHT22;4947;44.526;11.360;2023-03-24T15:08:45;20.70;84.60
9816;DHT22;4947;44.526;11.360;2023-03-24T15:11:17;20.60;85.40
9816;DHT22;4947;44.526;11.360;2023-03-24T15:13:47;20.60;86.40
9816;DHT22;4947;44.526;11.360;2023-03-24T15:16:19;20.60;85.70
9816;DHT22;4947;44.526;11.360;2023-03-24T15:18:49;20.70;85.20
9816;DHT22;4947;44.526;11.360;2023-03-24T15:21:23;20.60;82.40
9816;DHT22;4947;44.526;11.360;2023-03-24T15:23:52;20.60;82.50
9816;DHT22;4947;44.526;11.360;2023-03-24T15:26:21;20.60;82.60
9816;DHT22;4947;44.526;11.360;2023-03-24T15:28:59;20.60;82.90
9816;DHT22;4947;44.526;11.360;2023-03-24T15:31:27;20.60;84.50
9816;DHT22;4947;44.526;11.360;2023-03-24T15:34:03;20.70;81.80
9816;DHT22;4947;44.526;11.360;2023-03-24T15:36:38;20.70;80.30
9816;DHT22;4947;44.526;11.360;2023-03-24T15:39:17;20.80;82.30
9816;DHT22;4947;44.526;11.360;2023-03-24T15:41:45;20.80;83.40
9816;DHT22;4947;44.526;11.360;2023-03-24T15:44:17;20.80;85.40
9816;DHT22;4947;44.526;11.360;2023-03-24T15:46:46;20.80;84.20
9816;DHT22;4947;44.526;11.360;2023-03-24T15:49:21;20.80;86.30
9816;DHT22;4947;44.526;11.360;2023-03-24T15:51:55;20.70;86.60
9816;DHT22;4947;44.526;11.360;2023-03-24T15:54:24;20.60;82.60
9816;DHT22;4947;44.526;11.360;2023-03-24T15:57:00;20.60;82.60
9816;DHT22;4947;44.526;11.360;2023-03-24T15:59:32;20.60;66.70
9816;DHT22;4947;44.526;11.360;2023-03-24T16:02:00;20.60;62.40
9816;DHT22;4947;44.526;11.360;2023-03-24T16:04:29;20.70;61.10
9816;DHT22;4947;44.526;11.360;2023-03-24T16:06:58;20.60;59.30
9816;DHT22;4947;44.526;11.360;2023-03-24T16:09:34;20.50;59.50
9816;DHT22;4947;44.526;11.360;2023-03-24T16:12:07;20.40;57.90
9816;DHT22;4947;44.526;11.360;2023-03-24T16:14:35;20.40;58.60
9816;DHT22;4947;44.526;11.360;2023-03-24T16:17:03;20.30;57.80
9816;DHT22;4947;44.526;11.360;2023-03-24T16:19:30;20.10;57.90
9816;DHT22;4947;44.526;11.360;2023-03-24T16:22:00;20.00;58.20
9816;DHT22;4947;44.526;11.360;2023-03-24T16:24:27;20.00;58.00
9816;DHT22;4947;44.526;11.360;2023-03-24T16:26:54;19.80;57.90
9816;DHT22;4947;44.526;11.360;2023-03-24T16:29:23;19.80;58.00
9816;DHT22;4947;44.526;11.360;2023-03-24T16:31:52;19.70;58.20
9816;DHT22;4947;44.526;11.360;2023-03-24T16:34:21;19.70;58.40
9816;DHT22;4947;44.526;11.360;2023-03-24T16:36:50;19.60;58.20